sensor_id;sensor_type;location;lat;lon;timestamp;P1;durP1;ratioP1;P2;durP2;ratioP2
31406;SDS011;18043;52.438;4.836;2022-08-27T00:01:08;6.20;;;2.20;;
31406;SDS011;18043;52.438;4.836;2022-08-27T00:03:45;5.25;;;1.83;;
31406;SDS011;18043;52.438;4.836;2022-08-27T00:06:18;10.07;;;2.28;;
31406;SDS011;18043;52.438;4.836;2022-08-27T00:08:52;8.35;;;1.88;;
31406;SDS011;18043;52.438;4.836;2022-08-27T00:11:25;7.00;;;1.73;;
31406;SDS011;18043;52.438;4.836;2022-08-27T00:13:59;5.93;;;2.08;;
31406;SDS011;18043;52.438;4.836;2022-08-27T00:16:31;10.38;;;2.15;;
31406;SDS011;18043;52.438;4.836;2022-08-27T00:19:04;4.95;;;2.03;;
31406;SDS011;18043;52.438;4.836;2022-08-27T00:21:37;5.43;;;1.75;;
31406;SDS011;18043;52.438;4.836;2022-08-27T00:24:10;7.28;;;2.15;;
31406;SDS011;18043;52.438;4.836;2022-08-27T00:26:43;7.05;;;1.95;;
31406;SDS011;18043;52.438;4.836;2022-08-27T00:29:17;6.28;;;1.83;;
31406;SDS011;18043;52.438;4.836;2022-08-27T00:31:50;7.50;;;2.10;;
31406;SDS011;18043;52.438;4.836;2022-08-27T00:34:22;7.07;;;2.03;;
31406;SDS011;18043;52.438;4.836;2022-08-27T00:36:55;4.72;;;1.63;;
31406;SDS011;18043;52.438;4.836;2022-08-27T00:39:28;6.18;;;2.47;;
31406;SDS011;18043;52.438;4.836;2022-08-27T00:42:01;8.48;;;2.65;;
31406;SDS011;18043;52.438;4.836;2022-08-27T00:44:35;3.70;;;1.75;;
31406;SDS011;18043;52.438;4.836;2022-08-27T00:47:10;7.50;;;2.00;;
31406;SDS011;18043;52.438;4.836;2022-08-27T00:49:46;8.35;;;2.63;;
31406;SDS011;18043;52.438;4.836;2022-08-27T00:52:25;8.98;;;1.80;;
31406;SDS011;18043;52.438;4.836;2022-08-27T00:55:06;9.75;;;2.25;;
31406;SDS011;18043;52.438;4.836;2022-08-27T00:57:43;10.55;;;2.10;;
31406;SDS011;18043;52.438;4.836;2022-08-27T01:00:21;5.07;;;2.95;;
31406;SDS011;18043;52.438;4.836;2022-08-27T01:02:54;7.40;;;2.22;;
31406;SDS011;18043;52.438;4.836;2022-08-27T01:05:27;6.00;;;2.58;;
31406;SDS011;18043;52.438;4.836;2022-08-27T01:08:01;4.03;;;2.10;;
31406;SDS011;18043;52.438;4.836;2022-08-27T01:10:37;7.60;;;1.95;;
31406;SDS011;18043;52.438;4.836;2022-08-27T01:13:12;6.80;;;2.00;;
31406;SDS011;18043;52.438;4.836;2022-08-27T01:15:50;6.88;;;2.25;;
31406;SDS011;18043;52.438;4.836;2022-08-27T01:18:28;11.05;;;2.53;;
31406;SDS011;18043;52.438;4.836;2022-08-27T01:21:04;8.00;;;1.88;;
31406;SDS011;18043;52.438;4.836;2022-08-27T01:23:47;6.00;;;2.70;;
31406;SDS011;18043;52.438;4.836;2022-08-27T01:26:26;7.10;;;2.10;;
31406;SDS011;18043;52.438;4.836;2022-08-27T01:28:59;6.55;;;2.15;;
31406;SDS011;18043;52.438;4.836;2022-08-27T01:31:32;11.23;;;2.63;;
31406;SDS011;18043;52.438;4.836;2022-08-27T01:34:05;5.20;;;2.03;;
31406;SDS011;18043;52.438;4.836;2022-08-27T01:36:38;7.60;;;2.47;;
31406;SDS011;18043;52.438;4.836;2022-08-27T01:39:10;7.28;;;2.45;;
31406;SDS011;18043;52.438;4.836;2022-08-27T01:41:44;9.98;;;2.88;;
31406;SDS011;18043;52.438;4.836;2022-08-27T01:44:17;5.53;;;1.83;;
31406;SDS011;18043;52.438;4.836;2022-08-27T01:46:50;7.15;;;2.80;;
31406;SDS011;18043;52.438;4.836;2022-08-27T01:49:22;9.68;;;2.00;;
31406;SDS011;18043;52.438;4.836;2022-08-27T01:51:55;10.75;;;2.20;;
31406;SDS011;18043;52.438;4.836;2022-08-27T01:54:28;6.47;;;2.20;;
31406;SDS011;18043;52.438;4.836;2022-08-27T01:57:04;5.75;;;2.17;;
31406;SDS011;18043;52.438;4.836;2022-08-27T01:59:37;7.72;;;1.70;;
31406;SDS011;18043;52.438;4.836;2022-08-27T02:02:10;4.00;;;1.73;;
31406;SDS011;18043;52.438;4.836;2022-08-27T02:04:44;11.52;;;2.72;;
31406;SDS011;18043;52.438;4.836;2022-08-27T02:07:17;3.00;;;1.75;;
31406;SDS011;18043;52.438;4.836;2022-08-27T02:09:50;4.10;;;1.83;;
31406;SDS011;18043;52.438;4.836;2022-08-27T02:12:24;5.93;;;2.33;;
31406;SDS011;18043;52.438;4.836;2022-08-27T02:14:57;8.00;;;2.70;;
31406;SDS011;18043;52.438;4.836;2022-08-27T02:17:29;5.85;;;1.90;;
31406;SDS011;18043;52.438;4.836;2022-08-27T02:20:02;12.07;;;2.78;;
31406;SDS011;18043;52.438;4.836;2022-08-27T02:22:38;5.70;;;2.20;;
31406;SDS011;18043;52.438;4.836;2022-08-27T02:25:12;4.40;;;2.15;;
31406;SDS011;18043;52.438;4.836;2022-08-27T02:27:48;9.85;;;2.22;;
31406;SDS011;18043;52.438;4.836;2022-08-27T02:30:21;9.27;;;2.38;;
31406;SDS011;18043;52.438;4.836;2022-08-27T02:32:54;5.07;;;2.00;;
31406;SDS011;18043;52.438;4.836;2022-08-27T02:35:30;5.80;;;2.25;;
31406;SDS011;18043;52.438;4.836;2022-08-27T02:38:07;10.20;;;2.90;;
31406;SDS011;18043;52.438;4.836;2022-08-27T02:40:42;6.72;;;2.00;;
31406;SDS011;18043;52.438;4.836;2022-08-27T02:43:16;4.38;;;2.20;;
31406;SDS011;18043;52.438;4.836;2022-08-27T02:45:48;7.35;;;2.45;;
31406;SDS011;18043;52.438;4.836;2022-08-27T02:48:21;5.22;;;2.30;;
31406;SDS011;18043;52.438;4.836;2022-08-27T02:54:33;8.05;;;2.50;;
31406;SDS011;18043;52.438;4.836;2022-08-27T02:57:06;7.03;;;3.50;;
31406;SDS011;18043;52.438;4.836;2022-08-27T02:59:40;9.93;;;2.75;;
31406;SDS011;18043;52.438;4.836;2022-08-27T03:02:13;8.57;;;3.03;;
31406;SDS011;18043;52.438;4.836;2022-08-27T03:04:45;5.40;;;2.38;;
31406;SDS011;18043;52.438;4.836;2022-08-27T03:07:18;3.92;;;2.78;;
31406;SDS011;18043;52.438;4.836;2022-08-27T03:09:53;6.93;;;2.42;;
31406;SDS011;18043;52.438;4.836;2022-08-27T03:12:26;14.32;;;3.25;;
31406;SDS011;18043;52.438;4.836;2022-08-27T03:15:00;9.95;;;3.58;;
31406;SDS011;18043;52.438;4.836;2022-08-27T03:17:33;6.00;;;2.67;;
31406;SDS011;18043;52.438;4.836;2022-08-27T03:20:23;8.18;;;2.63;;
31406;SDS011;18043;52.438;4.836;2022-08-27T03:22:57;4.43;;;2.53;;
31406;SDS011;18043;52.438;4.836;2022-08-27T03:25:30;9.02;;;2.97;;
31406;SDS011;18043;52.438;4.836;2022-08-27T03:28:02;8.80;;;2.63;;
31406;SDS011;18043;52.438;4.836;2022-08-27T03:33:09;7.80;;;2.95;;
31406;SDS011;18043;52.438;4.836;2022-08-27T03:38:15;5.93;;;2.22;;
31406;SDS011;18043;52.438;4.836;2022-08-27T03:40:47;9.15;;;2.63;;
31406;SDS011;18043;52.438;4.836;2022-08-27T03:43:21;9.80;;;2.60;;
31406;SDS011;18043;52.438;4.836;2022-08-27T03:45:55;8.90;;;3.67;;
31406;SDS011;18043;52.438;4.836;2022-08-27T03:48:29;8.70;;;2.97;;
31406;SDS011;18043;52.438;4.836;2022-08-27T03:54:00;8.27;;;2.75;;
31406;SDS011;18043;52.438;4.836;2022-08-27T03:56:33;9.63;;;3.13;;
31406;SDS011;18043;52.438;4.836;2022-08-27T03:59:08;5.95;;;3.45;;
31406;SDS011;18043;52.438;4.836;2022-08-27T04:01:42;7.82;;;2.90;;
31406;SDS011;18043;52.438;4.836;2022-08-27T04:04:16;5.35;;;2.70;;
31406;SDS011;18043;52.438;4.836;2022-08-27T04:06:49;13.15;;;3.70;;
31406;SDS011;18043;52.438;4.836;2022-08-27T04:09:21;7.05;;;3.35;;
31406;SDS011;18043;52.438;4.836;2022-08-27T04:11:54;4.63;;;2.63;;
31406;SDS011;18043;52.438;4.836;2022-08-27T04:14:27;4.68;;;2.60;;
31406;SDS011;18043;52.438;4.836;2022-08-27T04:17:01;9.45;;;3.28;;
31406;SDS011;18043;52.438;4.836;2022-08-27T04:19:35;4.55;;;2.80;;
31406;SDS011;18043;52.438;4.836;2022-08-27T04:22:08;10.75;;;3.55;;
31406;SDS011;18043;52.438;4.836;2022-08-27T04:24:41;7.65;;;3.92;;
31406;SDS011;18043;52.438;4.836;2022-08-27T04:27:14;6.40;;;2.97;;
31406;SDS011;18043;52.438;4.836;2022-08-27T04:29:47;6.65;;;2.97;;
31406;SDS011;18043;52.438;4.836;2022-08-27T04:32:21;7.22;;;3.47;;
31406;SDS011;18043;52.438;4.836;2022-08-27T04:34:54;11.95;;;4.43;;
31406;SDS011;18043;52.438;4.836;2022-08-27T04:37:28;23.48;;;4.35;;
31406;SDS011;18043;52.438;4.836;2022-08-27T04:40:02;7.68;;;3.42;;
31406;SDS011;18043;52.438;4.836;2022-08-27T04:42:35;13.00;;;3.75;;
31406;SDS011;18043;52.438;4.836;2022-08-27T04:45:08;6.57;;;3.70;;
31406;SDS011;18043;52.438;4.836;2022-08-27T04:47:43;6.75;;;3.08;;
31406;SDS011;18043;52.438;4.836;2022-08-27T04:50:15;10.15;;;4.35;;
31406;SDS011;18043;52.438;4.836;2022-08-27T04:52:48;9.88;;;3.55;;
31406;SDS011;18043;52.438;4.836;2022-08-27T04:55:21;9.35;;;4.97;;
31406;SDS011;18043;52.438;4.836;2022-08-27T04:57:53;8.65;;;3.00;;
31406;SDS011;18043;52.438;4.836;2022-08-27T05:00:26;8.07;;;4.18;;
31406;SDS011;18043;52.438;4.836;2022-08-27T05:03:00;10.30;;;3.22;;
31406;SDS011;18043;52.438;4.836;2022-08-27T05:05:34;10.55;;;3.80;;
31406;SDS011;18043;52.438;4.836;2022-08-27T05:08:07;10.32;;;4.78;;
31406;SDS011;18043;52.438;4.836;2022-08-27T05:10:43;7.75;;;3.50;;
31406;SDS011;18043;52.438;4.836;2022-08-27T05:13:18;7.72;;;3.00;;
31406;SDS011;18043;52.438;4.836;2022-08-27T05:15:57;5.75;;;2.63;;
31406;SDS011;18043;52.438;4.836;2022-08-27T05:18:35;8.13;;;4.00;;
31406;SDS011;18043;52.438;4.836;2022-08-27T05:21:08;4.50;;;2.88;;
31406;SDS011;18043;52.438;4.836;2022-08-27T05:23:48;5.97;;;3.65;;
31406;SDS011;18043;52.438;4.836;2022-08-27T05:26:23;11.70;;;3.05;;
31406;SDS011;18043;52.438;4.836;2022-08-27T05:28:57;6.53;;;2.60;;
31406;SDS011;18043;52.438;4.836;2022-08-27T05:31:30;5.00;;;3.28;;
31406;SDS011;18043;52.438;4.836;2022-08-27T05:34:04;6.57;;;2.85;;
31406;SDS011;18043;52.438;4.836;2022-08-27T05:36:38;7.00;;;2.88;;
31406;SDS011;18043;52.438;4.836;2022-08-27T05:39:11;11.80;;;3.97;;
31406;SDS011;18043;52.438;4.836;2022-08-27T05:41:44;7.88;;;3.40;;
31406;SDS011;18043;52.438;4.836;2022-08-27T05:44:17;4.13;;;2.50;;
31406;SDS011;18043;52.438;4.836;2022-08-27T05:46:49;7.03;;;2.75;;
31406;SDS011;18043;52.438;4.836;2022-08-27T05:49:39;6.38;;;2.88;;
31406;SDS011;18043;52.438;4.836;2022-08-27T05:52:11;5.90;;;2.90;;
31406;SDS011;18043;52.438;4.836;2022-08-27T05:54:44;6.47;;;2.70;;
31406;SDS011;18043;52.438;4.836;2022-08-27T05:57:17;6.65;;;3.58;;
31406;SDS011;18043;52.438;4.836;2022-08-27T05:59:49;9.73;;;2.58;;
31406;SDS011;18043;52.438;4.836;2022-08-27T06:02:39;6.05;;;2.70;;
31406;SDS011;18043;52.438;4.836;2022-08-27T06:05:14;7.10;;;3.33;;
31406;SDS011;18043;52.438;4.836;2022-08-27T06:07:48;5.43;;;3.00;;
31406;SDS011;18043;52.438;4.836;2022-08-27T06:10:21;4.97;;;2.53;;
31406;SDS011;18043;52.438;4.836;2022-08-27T06:15:26;3.65;;;2.30;;
31406;SDS011;18043;52.438;4.836;2022-08-27T06:18:00;6.28;;;2.25;;
31406;SDS011;18043;52.438;4.836;2022-08-27T06:20:34;10.15;;;2.95;;
31406;SDS011;18043;52.438;4.836;2022-08-27T06:23:06;4.53;;;2.22;;
31406;SDS011;18043;52.438;4.836;2022-08-27T06:25:39;6.00;;;2.63;;
31406;SDS011;18043;52.438;4.836;2022-08-27T06:28:15;7.90;;;2.35;;
31406;SDS011;18043;52.438;4.836;2022-08-27T06:30:50;4.57;;;2.00;;
31406;SDS011;18043;52.438;4.836;2022-08-27T06:33:23;7.50;;;2.40;;
31406;SDS011;18043;52.438;4.836;2022-08-27T06:35:58;5.05;;;2.53;;
31406;SDS011;18043;52.438;4.836;2022-08-27T06:38:31;9.55;;;2.85;;
31406;SDS011;18043;52.438;4.836;2022-08-27T06:41:05;8.75;;;2.42;;
31406;SDS011;18043;52.438;4.836;2022-08-27T06:47:26;5.75;;;2.08;;
31406;SDS011;18043;52.438;4.836;2022-08-27T06:50:01;5.00;;;2.00;;
31406;SDS011;18043;52.438;4.836;2022-08-27T06:55:09;7.15;;;2.40;;
31406;SDS011;18043;52.438;4.836;2022-08-27T07:01:10;7.22;;;1.92;;
31406;SDS011;18043;52.438;4.836;2022-08-27T07:03:44;6.40;;;1.92;;
31406;SDS011;18043;52.438;4.836;2022-08-27T07:08:50;6.38;;;1.90;;
31406;SDS011;18043;52.438;4.836;2022-08-27T07:11:23;9.50;;;2.35;;
31406;SDS011;18043;52.438;4.836;2022-08-27T07:13:58;3.30;;;2.08;;
31406;SDS011;18043;52.438;4.836;2022-08-27T07:16:31;11.15;;;2.67;;
31406;SDS011;18043;52.438;4.836;2022-08-27T07:22:10;7.57;;;2.03;;
31406;SDS011;18043;52.438;4.836;2022-08-27T07:24:44;6.65;;;2.13;;
31406;SDS011;18043;52.438;4.836;2022-08-27T07:27:17;7.40;;;2.33;;
31406;SDS011;18043;52.438;4.836;2022-08-27T07:29:50;7.00;;;2.20;;
31406;SDS011;18043;52.438;4.836;2022-08-27T07:32:23;8.05;;;3.20;;
31406;SDS011;18043;52.438;4.836;2022-08-27T07:37:29;4.60;;;2.13;;
31406;SDS011;18043;52.438;4.836;2022-08-27T07:40:06;4.00;;;1.63;;
31406;SDS011;18043;52.438;4.836;2022-08-27T07:42:42;8.35;;;2.53;;
31406;SDS011;18043;52.438;4.836;2022-08-27T07:45:32;8.70;;;2.45;;
31406;SDS011;18043;52.438;4.836;2022-08-27T07:50:37;10.10;;;2.38;;
31406;SDS011;18043;52.438;4.836;2022-08-27T07:53:10;3.92;;;1.90;;
31406;SDS011;18043;52.438;4.836;2022-08-27T07:55:44;6.13;;;2.35;;
31406;SDS011;18043;52.438;4.836;2022-08-27T07:58:17;8.32;;;1.60;;
31406;SDS011;18043;52.438;4.836;2022-08-27T08:00:49;7.95;;;2.05;;
31406;SDS011;18043;52.438;4.836;2022-08-27T08:03:25;3.28;;;1.45;;
31406;SDS011;18043;52.438;4.836;2022-08-27T08:06:01;6.82;;;1.60;;
31406;SDS011;18043;52.438;4.836;2022-08-27T08:08:35;6.10;;;2.40;;
31406;SDS011;18043;52.438;4.836;2022-08-27T08:11:11;7.28;;;2.10;;
31406;SDS011;18043;52.438;4.836;2022-08-27T08:13:46;12.43;;;2.30;;
31406;SDS011;18043;52.438;4.836;2022-08-27T08:16:19;7.05;;;1.77;;
31406;SDS011;18043;52.438;4.836;2022-08-27T08:18:54;4.10;;;1.85;;
31406;SDS011;18043;52.438;4.836;2022-08-27T08:21:29;7.40;;;1.85;;
31406;SDS011;18043;52.438;4.836;2022-08-27T08:26:36;5.53;;;1.52;;
31406;SDS011;18043;52.438;4.836;2022-08-27T08:29:11;5.75;;;1.20;;
31406;SDS011;18043;52.438;4.836;2022-08-27T08:31:44;7.82;;;1.83;;
31406;SDS011;18043;52.438;4.836;2022-08-27T08:34:17;13.20;;;1.80;;
31406;SDS011;18043;52.438;4.836;2022-08-27T08:36:50;6.93;;;1.90;;
31406;SDS011;18043;52.438;4.836;2022-08-27T08:39:23;6.35;;;1.70;;
31406;SDS011;18043;52.438;4.836;2022-08-27T08:41:58;4.80;;;1.52;;
31406;SDS011;18043;52.438;4.836;2022-08-27T08:44:33;7.65;;;1.67;;
31406;SDS011;18043;52.438;4.836;2022-08-27T08:47:11;5.15;;;1.48;;
31406;SDS011;18043;52.438;4.836;2022-08-27T08:49:50;7.53;;;1.92;;
31406;SDS011;18043;52.438;4.836;2022-08-27T08:52:31;7.75;;;2.72;;
31406;SDS011;18043;52.438;4.836;2022-08-27T08:55:14;7.75;;;1.80;;
31406;SDS011;18043;52.438;4.836;2022-08-27T08:58:08;8.98;;;1.55;;
31406;SDS011;18043;52.438;4.836;2022-08-27T09:00:51;7.07;;;1.77;;
31406;SDS011;18043;52.438;4.836;2022-08-27T09:03:28;6.75;;;1.73;;
31406;SDS011;18043;52.438;4.836;2022-08-27T09:06:05;7.53;;;3.00;;
31406;SDS011;18043;52.438;4.836;2022-08-27T09:08:41;5.03;;;1.95;;
31406;SDS011;18043;52.438;4.836;2022-08-27T09:11:17;5.97;;;2.03;;
31406;SDS011;18043;52.438;4.836;2022-08-27T09:14:00;8.50;;;2.88;;
31406;SDS011;18043;52.438;4.836;2022-08-27T09:16:35;7.97;;;3.00;;
31406;SDS011;18043;52.438;4.836;2022-08-27T09:19:08;6.22;;;1.77;;
31406;SDS011;18043;52.438;4.836;2022-08-27T09:21:44;8.02;;;1.98;;
31406;SDS011;18043;52.438;4.836;2022-08-27T09:24:25;5.55;;;1.65;;
31406;SDS011;18043;52.438;4.836;2022-08-27T09:27:13;5.18;;;1.40;;
31406;SDS011;18043;52.438;4.836;2022-08-27T09:29:48;3.50;;;1.20;;
31406;SDS011;18043;52.438;4.836;2022-08-27T09:32:24;5.13;;;1.20;;
31406;SDS011;18043;52.438;4.836;2022-08-27T09:35:02;6.13;;;1.33;;
31406;SDS011;18043;52.438;4.836;2022-08-27T09:37:38;5.78;;;1.45;;
31406;SDS011;18043;52.438;4.836;2022-08-27T09:40:27;5.45;;;1.88;;
31406;SDS011;18043;52.438;4.836;2022-08-27T09:43:04;6.30;;;1.92;;
31406;SDS011;18043;52.438;4.836;2022-08-27T09:45:44;3.03;;;1.17;;
31406;SDS011;18043;52.438;4.836;2022-08-27T09:48:19;11.02;;;1.83;;
31406;SDS011;18043;52.438;4.836;2022-08-27T09:50:57;12.27;;;2.30;;
31406;SDS011;18043;52.438;4.836;2022-08-27T09:53:32;7.78;;;1.40;;
31406;SDS011;18043;52.438;4.836;2022-08-27T09:56:20;4.32;;;1.52;;
31406;SDS011;18043;52.438;4.836;2022-08-27T09:59:01;8.10;;;1.65;;
31406;SDS011;18043;52.438;4.836;2022-08-27T10:01:49;3.47;;;1.50;;
31406;SDS011;18043;52.438;4.836;2022-08-27T10:04:25;7.28;;;1.60;;
31406;SDS011;18043;52.438;4.836;2022-08-27T10:10:09;3.90;;;2.08;;
31406;SDS011;18043;52.438;4.836;2022-08-27T10:12:50;4.28;;;1.38;;
31406;SDS011;18043;52.438;4.836;2022-08-27T10:15:27;6.97;;;2.65;;
31406;SDS011;18043;52.438;4.836;2022-08-27T10:18:08;8.40;;;1.98;;
31406;SDS011;18043;52.438;4.836;2022-08-27T10:20:46;8.10;;;1.88;;
31406;SDS011;18043;52.438;4.836;2022-08-27T10:23:33;9.45;;;1.50;;
31406;SDS011;18043;52.438;4.836;2022-08-27T10:26:19;7.57;;;1.75;;
31406;SDS011;18043;52.438;4.836;2022-08-27T10:29:02;4.55;;;1.63;;
31406;SDS011;18043;52.438;4.836;2022-08-27T10:31:55;4.53;;;1.48;;
31406;SDS011;18043;52.438;4.836;2022-08-27T10:34:41;6.30;;;1.17;;
31406;SDS011;18043;52.438;4.836;2022-08-27T10:37:38;13.45;;;2.47;;
31406;SDS011;18043;52.438;4.836;2022-08-27T10:40:24;9.45;;;1.73;;
31406;SDS011;18043;52.438;4.836;2022-08-27T10:43:07;12.13;;;2.38;;
31406;SDS011;18043;52.438;4.836;2022-08-27T10:46:02;8.07;;;2.10;;
31406;SDS011;18043;52.438;4.836;2022-08-27T10:48:53;10.02;;;2.22;;
31406;SDS011;18043;52.438;4.836;2022-08-27T10:51:36;27.15;;;4.35;;
31406;SDS011;18043;52.438;4.836;2022-08-27T10:54:20;2.55;;;0.95;;
31406;SDS011;18043;52.438;4.836;2022-08-27T10:57:02;4.70;;;1.63;;
31406;SDS011;18043;52.438;4.836;2022-08-27T10:59:42;4.15;;;1.30;;
31406;SDS011;18043;52.438;4.836;2022-08-27T11:02:23;8.35;;;2.17;;
31406;SDS011;18043;52.438;4.836;2022-08-27T11:05:05;5.38;;;1.20;;
31406;SDS011;18043;52.438;4.836;2022-08-27T11:07:50;4.00;;;1.42;;
31406;SDS011;18043;52.438;4.836;2022-08-27T11:10:27;5.72;;;1.58;;
31406;SDS011;18043;52.438;4.836;2022-08-27T11:13:02;8.50;;;1.38;;
31406;SDS011;18043;52.438;4.836;2022-08-27T11:15:41;17.35;;;2.00;;
31406;SDS011;18043;52.438;4.836;2022-08-27T11:18:18;3.25;;;1.00;;
31406;SDS011;18043;52.438;4.836;2022-08-27T11:20:56;5.90;;;1.90;;
31406;SDS011;18043;52.438;4.836;2022-08-27T11:23:35;3.78;;;1.20;;
31406;SDS011;18043;52.438;4.836;2022-08-27T11:26:13;5.95;;;1.55;;
31406;SDS011;18043;52.438;4.836;2022-08-27T11:28:46;5.85;;;1.75;;
31406;SDS011;18043;52.438;4.836;2022-08-27T11:31:24;10.82;;;2.30;;
31406;SDS011;18043;52.438;4.836;2022-08-27T11:34:06;5.05;;;2.00;;
31406;SDS011;18043;52.438;4.836;2022-08-27T11:39:57;7.22;;;1.77;;
31406;SDS011;18043;52.438;4.836;2022-08-27T11:42:53;8.77;;;1.88;;
31406;SDS011;18043;52.438;4.836;2022-08-27T11:45:28;8.07;;;1.85;;
31406;SDS011;18043;52.438;4.836;2022-08-27T11:48:14;4.25;;;1.30;;
31406;SDS011;18043;52.438;4.836;2022-08-27T11:50:53;8.63;;;1.30;;
31406;SDS011;18043;52.438;4.836;2022-08-27T11:53:30;6.95;;;1.35;;
31406;SDS011;18043;52.438;4.836;2022-08-27T11:56:10;9.38;;;1.77;;
31406;SDS011;18043;52.438;4.836;2022-08-27T11:58:46;5.03;;;1.42;;
31406;SDS011;18043;52.438;4.836;2022-08-27T12:01:23;6.57;;;1.73;;
31406;SDS011;18043;52.438;4.836;2022-08-27T12:03:59;6.35;;;1.95;;
31406;SDS011;18043;52.438;4.836;2022-08-27T12:06:42;6.25;;;1.42;;
31406;SDS011;18043;52.438;4.836;2022-08-27T12:09:21;9.07;;;1.98;;
31406;SDS011;18043;52.438;4.836;2022-08-27T12:11:59;4.18;;;1.58;;
31406;SDS011;18043;52.438;4.836;2022-08-27T12:14:40;6.68;;;1.98;;
31406;SDS011;18043;52.438;4.836;2022-08-27T12:17:20;3.58;;;1.10;;
31406;SDS011;18043;52.438;4.836;2022-08-27T12:20:02;5.28;;;1.40;;
31406;SDS011;18043;52.438;4.836;2022-08-27T12:25:59;5.57;;;1.55;;
31406;SDS011;18043;52.438;4.836;2022-08-27T12:28:47;6.82;;;1.08;;
31406;SDS011;18043;52.438;4.836;2022-08-27T12:31:20;5.63;;;1.30;;
31406;SDS011;18043;52.438;4.836;2022-08-27T12:33:53;3.25;;;0.90;;
31406;SDS011;18043;52.438;4.836;2022-08-27T12:36:27;3.20;;;0.98;;
31406;SDS011;18043;52.438;4.836;2022-08-27T12:39:04;9.80;;;1.35;;
31406;SDS011;18043;52.438;4.836;2022-08-27T12:41:46;4.20;;;1.10;;
31406;SDS011;18043;52.438;4.836;2022-08-27T12:44:25;6.10;;;1.50;;
31406;SDS011;18043;52.438;4.836;2022-08-27T12:47:02;11.70;;;3.15;;
31406;SDS011;18043;52.438;4.836;2022-08-27T12:49:39;4.95;;;1.55;;
31406;SDS011;18043;52.438;4.836;2022-08-27T12:52:24;3.03;;;1.17;;
31406;SDS011;18043;52.438;4.836;2022-08-27T12:55:16;6.60;;;3.53;;
31406;SDS011;18043;52.438;4.836;2022-08-27T12:58:01;5.75;;;1.83;;
31406;SDS011;18043;52.438;4.836;2022-08-27T13:00:50;3.10;;;1.20;;
31406;SDS011;18043;52.438;4.836;2022-08-27T13:03:54;7.78;;;2.35;;
31406;SDS011;18043;52.438;4.836;2022-08-27T13:06:30;8.27;;;2.70;;
31406;SDS011;18043;52.438;4.836;2022-08-27T13:09:05;8.05;;;2.20;;
31406;SDS011;18043;52.438;4.836;2022-08-27T13:11:42;8.13;;;1.98;;
31406;SDS011;18043;52.438;4.836;2022-08-27T13:14:18;3.53;;;1.33;;
31406;SDS011;18043;52.438;4.836;2022-08-27T13:16:55;2.63;;;1.20;;
31406;SDS011;18043;52.438;4.836;2022-08-27T13:19:31;7.07;;;2.85;;
31406;SDS011;18043;52.438;4.836;2022-08-27T13:22:06;7.03;;;1.55;;
31406;SDS011;18043;52.438;4.836;2022-08-27T13:24:43;3.95;;;1.15;;
31406;SDS011;18043;52.438;4.836;2022-08-27T13:27:22;13.18;;;1.77;;
31406;SDS011;18043;52.438;4.836;2022-08-27T13:29:57;10.50;;;1.40;;
31406;SDS011;18043;52.438;4.836;2022-08-27T13:32:37;11.45;;;1.52;;
31406;SDS011;18043;52.438;4.836;2022-08-27T13:35:14;5.38;;;1.83;;
31406;SDS011;18043;52.438;4.836;2022-08-27T13:37:50;8.05;;;1.95;;
31406;SDS011;18043;52.438;4.836;2022-08-27T13:40:29;11.00;;;3.53;;
31406;SDS011;18043;52.438;4.836;2022-08-27T13:43:06;10.38;;;1.38;;
31406;SDS011;18043;52.438;4.836;2022-08-27T13:45:46;1.83;;;0.65;;
31406;SDS011;18043;52.438;4.836;2022-08-27T13:48:22;5.07;;;1.40;;
31406;SDS011;18043;52.438;4.836;2022-08-27T13:50:55;5.70;;;1.33;;
31406;SDS011;18043;52.438;4.836;2022-08-27T13:53:29;4.07;;;1.85;;
31406;SDS011;18043;52.438;4.836;2022-08-27T13:56:22;5.68;;;1.33;;
31406;SDS011;18043;52.438;4.836;2022-08-27T13:59:09;10.25;;;2.03;;
31406;SDS011;18043;52.438;4.836;2022-08-27T14:01:53;6.78;;;1.38;;
31406;SDS011;18043;52.438;4.836;2022-08-27T14:04:35;8.73;;;1.73;;
31406;SDS011;18043;52.438;4.836;2022-08-27T14:07:12;5.78;;;0.98;;
31406;SDS011;18043;52.438;4.836;2022-08-27T14:09:53;5.80;;;0.88;;
31406;SDS011;18043;52.438;4.836;2022-08-27T14:12:34;7.15;;;1.55;;
31406;SDS011;18043;52.438;4.836;2022-08-27T14:15:12;9.50;;;1.73;;
31406;SDS011;18043;52.438;4.836;2022-08-27T14:17:51;8.63;;;1.42;;
31406;SDS011;18043;52.438;4.836;2022-08-27T14:20:27;7.45;;;2.65;;
31406;SDS011;18043;52.438;4.836;2022-08-27T14:23:00;5.50;;;1.65;;
31406;SDS011;18043;52.438;4.836;2022-08-27T14:25:33;8.43;;;2.35;;
31406;SDS011;18043;52.438;4.836;2022-08-27T14:28:07;7.82;;;2.17;;
31406;SDS011;18043;52.438;4.836;2022-08-27T14:30:40;7.60;;;1.70;;
31406;SDS011;18043;52.438;4.836;2022-08-27T14:33:12;5.13;;;1.30;;
31406;SDS011;18043;52.438;4.836;2022-08-27T14:35:47;9.60;;;1.88;;
31406;SDS011;18043;52.438;4.836;2022-08-27T14:38:21;3.22;;;1.55;;
31406;SDS011;18043;52.438;4.836;2022-08-27T14:40:59;5.32;;;1.45;;
31406;SDS011;18043;52.438;4.836;2022-08-27T14:43:31;5.45;;;1.67;;
31406;SDS011;18043;52.438;4.836;2022-08-27T14:46:05;6.93;;;1.60;;
31406;SDS011;18043;52.438;4.836;2022-08-27T14:48:42;4.32;;;1.38;;
31406;SDS011;18043;52.438;4.836;2022-08-27T14:53:53;5.15;;;1.30;;
31406;SDS011;18043;52.438;4.836;2022-08-27T14:56:27;5.10;;;1.35;;
31406;SDS011;18043;52.438;4.836;2022-08-27T14:58:59;4.15;;;1.30;;
31406;SDS011;18043;52.438;4.836;2022-08-27T15:01:32;4.55;;;1.75;;
31406;SDS011;18043;52.438;4.836;2022-08-27T15:04:06;9.68;;;1.65;;
31406;SDS011;18043;52.438;4.836;2022-08-27T15:06:40;13.15;;;3.08;;
31406;SDS011;18043;52.438;4.836;2022-08-27T15:09:13;5.65;;;1.50;;
31406;SDS011;18043;52.438;4.836;2022-08-27T15:11:46;5.25;;;1.98;;
31406;SDS011;18043;52.438;4.836;2022-08-27T15:14:21;8.07;;;1.88;;
31406;SDS011;18043;52.438;4.836;2022-08-27T15:16:58;8.93;;;2.03;;
31406;SDS011;18043;52.438;4.836;2022-08-27T15:19:31;7.65;;;1.98;;
31406;SDS011;18043;52.438;4.836;2022-08-27T15:22:11;3.67;;;1.42;;
31406;SDS011;18043;52.438;4.836;2022-08-27T15:24:50;6.53;;;1.70;;
31406;SDS011;18043;52.438;4.836;2022-08-27T15:27:26;5.18;;;1.60;;
31406;SDS011;18043;52.438;4.836;2022-08-27T15:30:01;4.70;;;1.85;;
31406;SDS011;18043;52.438;4.836;2022-08-27T15:32:37;9.90;;;2.00;;
31406;SDS011;18043;52.438;4.836;2022-08-27T15:35:14;5.47;;;2.05;;
31406;SDS011;18043;52.438;4.836;2022-08-27T15:37:52;8.10;;;2.67;;
31406;SDS011;18043;52.438;4.836;2022-08-27T15:40:27;4.63;;;1.80;;
31406;SDS011;18043;52.438;4.836;2022-08-27T15:43:04;9.30;;;2.22;;
31406;SDS011;18043;52.438;4.836;2022-08-27T15:45:39;5.80;;;1.98;;
31406;SDS011;18043;52.438;4.836;2022-08-27T15:50:44;9.57;;;3.17;;
31406;SDS011;18043;52.438;4.836;2022-08-27T15:53:19;7.28;;;3.00;;
31406;SDS011;18043;52.438;4.836;2022-08-27T15:55:55;6.68;;;3.17;;
31406;SDS011;18043;52.438;4.836;2022-08-27T15:58:28;15.25;;;2.13;;
31406;SDS011;18043;52.438;4.836;2022-08-27T16:01:02;5.25;;;1.70;;
31406;SDS011;18043;52.438;4.836;2022-08-27T16:03:40;3.35;;;1.58;;
31406;SDS011;18043;52.438;4.836;2022-08-27T16:06:15;5.32;;;1.50;;
31406;SDS011;18043;52.438;4.836;2022-08-27T16:11:22;8.00;;;1.90;;
31406;SDS011;18043;52.438;4.836;2022-08-27T16:13:55;8.55;;;1.65;;
31406;SDS011;18043;52.438;4.836;2022-08-27T16:19:03;7.00;;;1.85;;
31406;SDS011;18043;52.438;4.836;2022-08-27T16:21:38;11.18;;;2.03;;
31406;SDS011;18043;52.438;4.836;2022-08-27T16:24:12;3.47;;;1.55;;
31406;SDS011;18043;52.438;4.836;2022-08-27T16:26:45;6.57;;;1.75;;
31406;SDS011;18043;52.438;4.836;2022-08-27T16:29:18;7.43;;;1.70;;
31406;SDS011;18043;52.438;4.836;2022-08-27T16:34:25;3.88;;;1.23;;
31406;SDS011;18043;52.438;4.836;2022-08-27T16:36:59;6.80;;;2.20;;
31406;SDS011;18043;52.438;4.836;2022-08-27T16:39:34;5.85;;;1.63;;